sensor_id;sensor_type;location;lat;lon;timestamp;temperature;humidity
59973;DHT22;55298;-36.624;-64.282;2022-08-01T00:00:29;10.80;99.90
59973;DHT22;55298;-36.624;-64.282;2022-08-01T00:02:59;10.70;99.90
59973;DHT22;55298;-36.624;-64.282;2022-08-01T00:05:29;10.60;99.90
59973;DHT22;55298;-36.624;-64.282;2022-08-01T00:07:58;10.60;99.90
59973;DHT22;55298;-36.624;-64.282;2022-08-01T00:10:26;10.60;99.90
59973;DHT22;55298;-36.624;-64.282;2022-08-01T00:12:55;10.50;99.90
59973;DHT22;55298;-36.624;-64.282;2022-08-01T00:15:23;10.50;99.90
59973;DHT22;55298;-36.624;-64.282;2022-08-01T00:17:52;10.50;99.90
59973;DHT22;55298;-36.624;-64.282;2022-08-01T00:20:20;10.40;99.90
59973;DHT22;55298;-36.624;-64.282;2022-08-01T00:22:49;10.40;99.90
59973;DHT22;55298;-36.624;-64.282;2022-08-01T00:25:19;10.30;99.90
59973;DHT22;55298;-36.624;-64.282;2022-08-01T00:27:47;10.30;99.90
59973;DHT22;55298;-36.624;-64.282;2022-08-01T00:30:15;10.20;99.90
59973;DHT22;55298;-36.624;-64.282;2022-08-01T00:32:43;10.10;99.90
59973;DHT22;55298;-36.624;-64.282;2022-08-01T00:35:12;10.00;99.90
59973;DHT22;55298;-36.624;-64.282;2022-08-01T00:37:41;10.10;99.90
59973;DHT22;55298;-36.624;-64.282;2022-08-01T00:40:10;10.10;99.90
59973;DHT22;55298;-36.624;-64.282;2022-08-01T00:42:39;10.10;99.90
59973;DHT22;55298;-36.624;-64.282;2022-08-01T00:45:09;10.00;99.90
59973;DHT22;55298;-36.624;-64.282;2022-08-01T00:47:39;10.00;99.90
59973;DHT22;55298;-36.624;-64.282;2022-08-01T00:50:10;9.80;99.90
59973;DHT22;55298;-36.624;-64.282;2022-08-01T00:52:39;9.80;99.90
59973;DHT22;55298;-36.624;-64.282;2022-08-01T00:55:10;9.80;99.90
59973;DHT22;55298;-36.624;-64.282;2022-08-01T00:57:40;9.70;99.90
59973;DHT22;55298;-36.624;-64.282;2022-08-01T01:00:10;9.70;99.90
59973;DHT22;55298;-36.624;-64.282;2022-08-01T01:02:38;9.70;99.90
59973;DHT22;55298;-36.624;-64.282;2022-08-01T01:05:10;9.60;99.90
59973;DHT22;55298;-36.624;-64.282;2022-08-01T01:07:50;9.60;99.90
59973;DHT22;55298;-36.624;-64.282;2022-08-01T01:10:36;9.50;99.90
59973;DHT22;55298;-36.624;-64.282;2022-08-01T01:13:31;9.50;99.90
59973;DHT22;55298;-36.624;-64.282;2022-08-01T01:16:10;9.50;99.90
59973;DHT22;55298;-36.624;-64.282;2022-08-01T01:18:44;9.50;99.90
59973;DHT22;55298;-36.624;-64.282;2022-08-01T01:22:25;9.50;99.90
59973;DHT22;55298;-36.624;-64.282;2022-08-01T01:27:36;9.50;99.90
59973;DHT22;55298;-36.624;-64.282;2022-08-01T01:30:05;9.50;99.90
59973;DHT22;55298;-36.624;-64.282;2022-08-01T01:32:39;9.50;99.90
59973;DHT22;55298;-36.624;-64.282;2022-08-01T01:35:15;9.50;99.90
59973;DHT22;55298;-36.624;-64.282;2022-08-01T01:37:47;9.50;99.90
59973;DHT22;55298;-36.624;-64.282;2022-08-01T01:40:18;9.40;99.90
59973;DHT22;55298;-36.624;-64.282;2022-08-01T01:42:49;9.40;99.90
59973;DHT22;55298;-36.624;-64.282;2022-08-01T01:45:19;9.30;99.90
59973;DHT22;55298;-36.624;-64.282;2022-08-01T01:47:49;9.20;99.90
59973;DHT22;55298;-36.624;-64.282;2022-08-01T01:50:21;9.20;99.90
59973;DHT22;55298;-36.624;-64.282;2022-08-01T01:52:54;9.10;99.90
59973;DHT22;55298;-36.624;-64.282;2022-08-01T01:55:24;9.10;99.90
59973;DHT22;55298;-36.624;-64.282;2022-08-01T01:57:56;9.10;99.90
59973;DHT22;55298;-36.624;-64.282;2022-08-01T02:00:26;9.00;99.90
59973;DHT22;55298;-36.624;-64.282;2022-08-01T02:02:56;9.00;99.90
59973;DHT22;55298;-36.624;-64.282;2022-08-01T02:05:26;9.00;99.90
59973;DHT22;55298;-36.624;-64.282;2022-08-01T02:07:56;8.90;99.90
59973;DHT22;55298;-36.624;-64.282;2022-08-01T02:10:25;8.90;99.90
59973;DHT22;55298;-36.624;-64.282;2022-08-01T02:12:53;8.90;99.90
59973;DHT22;55298;-36.624;-64.282;2022-08-01T02:15:24;8.80;99.90
59973;DHT22;55298;-36.624;-64.282;2022-08-01T02:17:54;8.80;99.90
59973;DHT22;55298;-36.624;-64.282;2022-08-01T02:20:26;8.80;99.90
59973;DHT22;55298;-36.624;-64.282;2022-08-01T02:23:11;8.70;99.90
59973;DHT22;55298;-36.624;-64.282;2022-08-01T02:25:49;8.70;99.90
59973;DHT22;55298;-36.624;-64.282;2022-08-01T02:28:24;8.70;99.90
59973;DHT22;55298;-36.624;-64.282;2022-08-01T02:31:00;8.70;99.90
59973;DHT22;55298;-36.624;-64.282;2022-08-01T02:33:52;8.70;99.90
59973;DHT22;55298;-36.624;-64.282;2022-08-01T02:36:23;8.90;99.90
59973;DHT22;55298;-36.624;-64.282;2022-08-01T02:38:55;8.70;99.90
59973;DHT22;55298;-36.624;-64.282;2022-08-01T02:41:26;8.70;99.90
59973;DHT22;55298;-36.624;-64.282;2022-08-01T02:44:01;8.70;99.90
59973;DHT22;55298;-36.624;-64.282;2022-08-01T02:46:41;8.70;99.90
59973;DHT22;55298;-36.624;-64.282;2022-08-01T02:49:11;8.70;99.90
59973;DHT22;55298;-36.624;-64.282;2022-08-01T02:51:41;8.70;99.90
59973;DHT22;55298;-36.624;-64.282;2022-08-01T02:54:13;8.70;99.90
59973;DHT22;55298;-36.624;-64.282;2022-08-01T02:56:43;8.70;99.90
59973;DHT22;55298;-36.624;-64.282;2022-08-01T02:59:15;8.70;99.90
59973;DHT22;55298;-36.624;-64.282;2022-08-01T03:01:46;8.70;99.90
59973;DHT22;55298;-36.624;-64.282;2022-08-01T03:04:17;8.70;99.90
59973;DHT22;55298;-36.624;-64.282;2022-08-01T03:06:46;8.70;99.90
59973;DHT22;55298;-36.624;-64.282;2022-08-01T03:09:16;8.70;99.90
59973;DHT22;55298;-36.624;-64.282;2022-08-01T03:11:47;8.70;99.90
59973;DHT22;55298;-36.624;-64.282;2022-08-01T03:14:18;8.60;99.90
59973;DHT22;55298;-36.624;-64.282;2022-08-01T03:16:48;8.70;99.90
59973;DHT22;55298;-36.624;-64.282;2022-08-01T03:19:18;8.70;99.90
59973;DHT22;55298;-36.624;-64.282;2022-08-01T03:21:49;8.70;99.90
59973;DHT22;55298;-36.624;-64.282;2022-08-01T03:24:19;8.60;99.90
59973;DHT22;55298;-36.624;-64.282;2022-08-01T03:26:51;8.60;99.90
59973;DHT22;55298;-36.624;-64.282;2022-08-01T03:29:24;8.70;99.90
59973;DHT22;55298;-36.624;-64.282;2022-08-01T03:31:53;8.70;99.90
59973;DHT22;55298;-36.624;-64.282;2022-08-01T03:34:22;8.70;99.90
59973;DHT22;55298;-36.624;-64.282;2022-08-01T03:37:14;8.70;99.90
59973;DHT22;55298;-36.624;-64.282;2022-08-01T03:39:54;8.60;99.90
59973;DHT22;55298;-36.624;-64.282;2022-08-01T03:42:28;8.60;99.90
59973;DHT22;55298;-36.624;-64.282;2022-08-01T03:45:07;8.50;99.90
59973;DHT22;55298;-36.624;-64.282;2022-08-01T03:47:37;8.50;99.90
59973;DHT22;55298;-36.624;-64.282;2022-08-01T03:50:07;8.60;99.90
59973;DHT22;55298;-36.624;-64.282;2022-08-01T03:52:39;8.60;99.90
59973;DHT22;55298;-36.624;-64.282;2022-08-01T03:55:08;8.50;99.90
59973;DHT22;55298;-36.624;-64.282;2022-08-01T03:57:38;8.40;99.90
59973;DHT22;55298;-36.624;-64.282;2022-08-01T04:00:08;8.40;99.90
59973;DHT22;55298;-36.624;-64.282;2022-08-01T04:02:37;8.40;99.90
59973;DHT22;55298;-36.624;-64.282;2022-08-01T04:05:05;8.50;99.90
59973;DHT22;55298;-36.624;-64.282;2022-08-01T04:07:35;8.50;99.90
59973;DHT22;55298;-36.624;-64.282;2022-08-01T04:10:03;8.40;99.90
59973;DHT22;55298;-36.624;-64.282;2022-08-01T04:12:33;8.30;99.90
59973;DHT22;55298;-36.624;-64.282;2022-08-01T04:15:02;8.30;99.90
59973;DHT22;55298;-36.624;-64.282;2022-08-01T04:17:31;8.30;99.90
59973;DHT22;55298;-36.624;-64.282;2022-08-01T04:19:59;8.30;99.90
59973;DHT22;55298;-36.624;-64.282;2022-08-01T04:22:28;8.20;99.90
59973;DHT22;55298;-36.624;-64.282;2022-08-01T04:24:59;8.30;99.90
59973;DHT22;55298;-36.624;-64.282;2022-08-01T04:27:32;8.20;99.90
59973;DHT22;55298;-36.624;-64.282;2022-08-01T04:30:06;8.20;99.90
59973;DHT22;55298;-36.624;-64.282;2022-08-01T04:32:39;8.20;99.90
59973;DHT22;55298;-36.624;-64.282;2022-08-01T04:35:10;8.10;99.90
59973;DHT22;55298;-36.624;-64.282;2022-08-01T04:37:42;8.10;99.90
59973;DHT22;55298;-36.624;-64.282;2022-08-01T04:40:12;8.00;99.90
59973;DHT22;55298;-36.624;-64.282;2022-08-01T04:42:41;8.00;99.90
59973;DHT22;55298;-36.624;-64.282;2022-08-01T04:45:09;8.00;99.90
59973;DHT22;55298;-36.624;-64.282;2022-08-01T04:47:40;8.10;99.90
59973;DHT22;55298;-36.624;-64.282;2022-08-01T04:50:11;7.80;99.90
59973;DHT22;55298;-36.624;-64.282;2022-08-01T04:52:40;7.90;99.90
59973;DHT22;55298;-36.624;-64.282;2022-08-01T04:55:09;7.80;99.90
59973;DHT22;55298;-36.624;-64.282;2022-08-01T04:57:41;7.80;99.90
59973;DHT22;55298;-36.624;-64.282;2022-08-01T05:00:12;7.70;99.90
59973;DHT22;55298;-36.624;-64.282;2022-08-01T05:02:40;7.70;99.90
59973;DHT22;55298;-36.624;-64.282;2022-08-01T05:05:08;7.60;99.90
59973;DHT22;55298;-36.624;-64.282;2022-08-01T05:07:37;7.60;99.90
59973;DHT22;55298;-36.624;-64.282;2022-08-01T05:10:06;7.60;99.90
59973;DHT22;55298;-36.624;-64.282;2022-08-01T05:12:34;7.60;99.90
59973;DHT22;55298;-36.624;-64.282;2022-08-01T05:15:03;7.60;99.90
59973;DHT22;55298;-36.624;-64.282;2022-08-01T05:17:30;7.60;99.90
59973;DHT22;55298;-36.624;-64.282;2022-08-01T05:19:59;7.70;99.90
59973;DHT22;55298;-36.624;-64.282;2022-08-01T05:22:29;7.70;99.90
59973;DHT22;55298;-36.624;-64.282;2022-08-01T05:24:56;7.70;99.90
59973;DHT22;55298;-36.624;-64.282;2022-08-01T05:27:26;7.70;99.90
59973;DHT22;55298;-36.624;-64.282;2022-08-01T05:29:54;7.70;99.90
59973;DHT22;55298;-36.624;-64.282;2022-08-01T05:32:22;7.70;99.90
59973;DHT22;55298;-36.624;-64.282;2022-08-01T05:34:50;7.60;99.90
59973;DHT22;55298;-36.624;-64.282;2022-08-01T05:37:22;7.60;99.90
59973;DHT22;55298;-36.624;-64.282;2022-08-01T05:39:49;7.60;99.90
59973;DHT22;55298;-36.624;-64.282;2022-08-01T05:42:18;7.60;99.90
59973;DHT22;55298;-36.624;-64.282;2022-08-01T05:44:46;7.70;99.90
59973;DHT22;55298;-36.624;-64.282;2022-08-01T05:47:17;7.60;99.90
59973;DHT22;55298;-36.624;-64.282;2022-08-01T05:49:47;7.50;99.90
59973;DHT22;55298;-36.624;-64.282;2022-08-01T05:52:15;7.50;99.90
59973;DHT22;55298;-36.624;-64.282;2022-08-01T05:54:44;7.40;99.90
59973;DHT22;55298;-36.624;-64.282;2022-08-01T05:57:13;7.30;99.90
59973;DHT22;55298;-36.624;-64.282;2022-08-01T05:59:41;7.40;99.90
59973;DHT22;55298;-36.624;-64.282;2022-08-01T06:02:10;7.40;99.90
59973;DHT22;55298;-36.624;-64.282;2022-08-01T06:04:37;7.40;99.90
59973;DHT22;55298;-36.624;-64.282;2022-08-01T06:07:06;7.40;99.90
59973;DHT22;55298;-36.624;-64.282;2022-08-01T06:09:35;7.20;99.90
59973;DHT22;55298;-36.624;-64.282;2022-08-01T06:12:04;7.20;99.90
59973;DHT22;55298;-36.624;-64.282;2022-08-01T06:14:33;6.90;99.90
59973;DHT22;55298;-36.624;-64.282;2022-08-01T06:17:02;6.90;99.90
59973;DHT22;55298;-36.624;-64.282;2022-08-01T06:19:33;6.60;99.90
59973;DHT22;55298;-36.624;-64.282;2022-08-01T06:22:01;6.70;99.90
59973;DHT22;55298;-36.624;-64.282;2022-08-01T06:24:30;6.50;99.90
59973;DHT22;55298;-36.624;-64.282;2022-08-01T06:26:58;6.50;99.90
59973;DHT22;55298;-36.624;-64.282;2022-08-01T06:29:29;6.40;99.90
59973;DHT22;55298;-36.624;-64.282;2022-08-01T06:31:58;6.40;99.90
59973;DHT22;55298;-36.624;-64.282;2022-08-01T06:34:27;6.50;99.90
59973;DHT22;55298;-36.624;-64.282;2022-08-01T06:36:54;6.50;99.90
59973;DHT22;55298;-36.624;-64.282;2022-08-01T06:39:22;6.30;99.90
59973;DHT22;55298;-36.624;-64.282;2022-08-01T06:41:51;6.10;99.90
59973;DHT22;55298;-36.624;-64.282;2022-08-01T06:44:19;6.10;99.90
59973;DHT22;55298;-36.624;-64.282;2022-08-01T06:46:47;6.10;99.90
59973;DHT22;55298;-36.624;-64.282;2022-08-01T06:49:15;6.10;99.90
59973;DHT22;55298;-36.624;-64.282;2022-08-01T06:51:43;6.10;99.90
59973;DHT22;55298;-36.624;-64.282;2022-08-01T06:54:11;6.20;99.90
59973;DHT22;55298;-36.624;-64.282;2022-08-01T06:56:42;6.10;99.90
59973;DHT22;55298;-36.624;-64.282;2022-08-01T06:59:11;6.20;99.90
59973;DHT22;55298;-36.624;-64.282;2022-08-01T07:01:39;6.10;99.90
59973;DHT22;55298;-36.624;-64.282;2022-08-01T07:04:08;5.90;99.90
59973;DHT22;55298;-36.624;-64.282;2022-08-01T07:06:36;6.00;99.90
59973;DHT22;55298;-36.624;-64.282;2022-08-01T07:09:04;5.80;99.90
59973;DHT22;55298;-36.624;-64.282;2022-08-01T07:11:32;5.80;99.90
59973;DHT22;55298;-36.624;-64.282;2022-08-01T07:14:01;5.90;99.90
59973;DHT22;55298;-36.624;-64.282;2022-08-01T07:16:30;6.00;99.90
59973;DHT22;55298;-36.624;-64.282;2022-08-01T07:18:59;6.10;99.90
59973;DHT22;55298;-36.624;-64.282;2022-08-01T07:21:28;5.80;99.90
59973;DHT22;55298;-36.624;-64.282;2022-08-01T07:23:57;5.80;99.90
59973;DHT22;55298;-36.624;-64.282;2022-08-01T07:26:26;5.70;99.90
59973;DHT22;55298;-36.624;-64.282;2022-08-01T07:28:55;5.80;99.90
59973;DHT22;55298;-36.624;-64.282;2022-08-01T07:31:23;5.80;99.90
59973;DHT22;55298;-36.624;-64.282;2022-08-01T07:33:52;5.90;99.90
59973;DHT22;55298;-36.624;-64.282;2022-08-01T07:36:21;5.80;99.90
59973;DHT22;55298;-36.624;-64.282;2022-08-01T07:38:49;5.40;99.90
59973;DHT22;55298;-36.624;-64.282;2022-08-01T07:41:18;5.70;99.90
59973;DHT22;55298;-36.624;-64.282;2022-08-01T07:43:47;5.70;99.90
59973;DHT22;55298;-36.624;-64.282;2022-08-01T07:46:16;5.60;99.90
59973;DHT22;55298;-36.624;-64.282;2022-08-01T07:48:46;5.50;99.90
59973;DHT22;55298;-36.624;-64.282;2022-08-01T07:51:13;5.50;99.90
59973;DHT22;55298;-36.624;-64.282;2022-08-01T07:53:42;5.60;99.90
59973;DHT22;55298;-36.624;-64.282;2022-08-01T07:56:09;5.60;99.90
59973;DHT22;55298;-36.624;-64.282;2022-08-01T07:58:38;5.50;99.90
59973;DHT22;55298;-36.624;-64.282;2022-08-01T08:01:06;5.50;99.90
59973;DHT22;55298;-36.624;-64.282;2022-08-01T08:03:36;5.50;99.90
59973;DHT22;55298;-36.624;-64.282;2022-08-01T08:06:03;5.40;99.90
59973;DHT22;55298;-36.624;-64.282;2022-08-01T08:08:32;5.40;99.90
59973;DHT22;55298;-36.624;-64.282;2022-08-01T08:11:02;5.30;99.90
59973;DHT22;55298;-36.624;-64.282;2022-08-01T08:13:30;5.30;99.90
59973;DHT22;55298;-36.624;-64.282;2022-08-01T08:15:58;5.40;99.90
59973;DHT22;55298;-36.624;-64.282;2022-08-01T08:18:27;5.50;99.90
59973;DHT22;55298;-36.624;-64.282;2022-08-01T08:20:56;5.50;99.90
59973;DHT22;55298;-36.624;-64.282;2022-08-01T08:23:25;5.60;99.90
59973;DHT22;55298;-36.624;-64.282;2022-08-01T08:26:04;5.60;99.90
59973;DHT22;55298;-36.624;-64.282;2022-08-01T08:28:33;5.60;99.90
59973;DHT22;55298;-36.624;-64.282;2022-08-01T08:31:00;5.50;99.90
59973;DHT22;55298;-36.624;-64.282;2022-08-01T08:33:29;5.60;99.90
59973;DHT22;55298;-36.624;-64.282;2022-08-01T08:35:59;5.50;99.90
59973;DHT22;55298;-36.624;-64.282;2022-08-01T08:38:28;5.50;99.90
59973;DHT22;55298;-36.624;-64.282;2022-08-01T08:40:57;5.20;99.90
59973;DHT22;55298;-36.624;-64.282;2022-08-01T08:43:26;5.20;99.90
59973;DHT22;55298;-36.624;-64.282;2022-08-01T08:45:54;5.20;99.90
59973;DHT22;55298;-36.624;-64.282;2022-08-01T08:48:23;5.20;99.90
59973;DHT22;55298;-36.624;-64.282;2022-08-01T08:50:52;5.20;99.90
59973;DHT22;55298;-36.624;-64.282;2022-08-01T08:53:21;5.20;99.90
59973;DHT22;55298;-36.624;-64.282;2022-08-01T08:55:50;5.20;99.90
59973;DHT22;55298;-36.624;-64.282;2022-08-01T08:58:18;5.10;99.90
59973;DHT22;55298;-36.624;-64.282;2022-08-01T09:00:46;4.90;99.90
59973;DHT22;55298;-36.624;-64.282;2022-08-01T09:03:16;4.90;99.90
59973;DHT22;55298;-36.624;-64.282;2022-08-01T09:05:44;4.90;99.90
59973;DHT22;55298;-36.624;-64.282;2022-08-01T09:08:13;4.70;99.90
59973;DHT22;55298;-36.624;-64.282;2022-08-01T09:10:41;4.70;99.90
59973;DHT22;55298;-36.624;-64.282;2022-08-01T09:13:13;4.60;99.90
59973;DHT22;55298;-36.624;-64.282;2022-08-01T09:15:48;4.60;99.90
59973;DHT22;55298;-36.624;-64.282;2022-08-01T09:18:37;4.60;99.90
59973;DHT22;55298;-36.624;-64.282;2022-08-01T09:21:18;4.70;99.90
59973;DHT22;55298;-36.624;-64.282;2022-08-01T09:23:50;4.60;99.90
59973;DHT22;55298;-36.624;-64.282;2022-08-01T09:26:30;4.60;99.90
59973;DHT22;55298;-36.624;-64.282;2022-08-01T09:29:00;4.60;99.90
59973;DHT22;55298;-36.624;-64.282;2022-08-01T09:31:38;4.60;99.90
59973;DHT22;55298;-36.624;-64.282;2022-08-01T09:34:08;4.50;99.90
59973;DHT22;55298;-36.624;-64.282;2022-08-01T09:36:51;4.50;99.90
59973;DHT22;55298;-36.624;-64.282;2022-08-01T09:39:28;4.50;99.90
59973;DHT22;55298;-36.624;-64.282;2022-08-01T09:42:00;4.40;99.90
59973;DHT22;55298;-36.624;-64.282;2022-08-01T09:44:40;4.50;99.90
59973;DHT22;55298;-36.624;-64.282;2022-08-01T09:47:11;4.60;99.90
59973;DHT22;55298;-36.624;-64.282;2022-08-01T09:49:41;4.60;99.90
59973;DHT22;55298;-36.624;-64.282;2022-08-01T09:52:28;4.60;99.90
59973;DHT22;55298;-36.624;-64.282;2022-08-01T09:55:01;4.50;99.90
59973;DHT22;55298;-36.624;-64.282;2022-08-01T09:57:30;4.50;99.90
59973;DHT22;55298;-36.624;-64.282;2022-08-01T10:00:01;4.40;99.90
59973;DHT22;55298;-36.624;-64.282;2022-08-01T10:02:36;4.40;99.90
59973;DHT22;55298;-36.624;-64.282;2022-08-01T10:05:06;4.40;99.90
59973;DHT22;55298;-36.624;-64.282;2022-08-01T10:07:54;4.40;99.90
59973;DHT22;55298;-36.624;-64.282;2022-08-01T10:10:24;4.40;99.90
59973;DHT22;55298;-36.624;-64.282;2022-08-01T10:12:56;4.40;99.90
59973;DHT22;55298;-36.624;-64.282;2022-08-01T10:15:28;4.40;99.90
59973;DHT22;55298;-36.624;-64.282;2022-08-01T10:18:04;4.40;99.90
59973;DHT22;55298;-36.624;-64.282;2022-08-01T10:20:34;4.40;99.90
59973;DHT22;55298;-36.624;-64.282;2022-08-01T10:23:05;4.20;99.90
59973;DHT22;55298;-36.624;-64.282;2022-08-01T10:25:37;4.40;99.90
59973;DHT22;55298;-36.624;-64.282;2022-08-01T10:28:16;4.30;99.90
59973;DHT22;55298;-36.624;-64.282;2022-08-01T10:30:45;4.40;99.90
59973;DHT22;55298;-36.624;-64.282;2022-08-01T10:33:13;4.40;99.90
59973;DHT22;55298;-36.624;-64.282;2022-08-01T10:35:42;4.40;99.90
59973;DHT22;55298;-36.624;-64.282;2022-08-01T10:38:14;4.40;99.90
59973;DHT22;55298;-36.624;-64.282;2022-08-01T10:40:43;4.50;99.90
59973;DHT22;55298;-36.624;-64.282;2022-08-01T10:43:13;4.60;99.90
59973;DHT22;55298;-36.624;-64.282;2022-08-01T10:45:44;4.50;99.90
59973;DHT22;55298;-36.624;-64.282;2022-08-01T10:51:01;4.60;99.90
59973;DHT22;55298;-36.624;-64.282;2022-08-01T10:53:31;4.50;99.90
59973;DHT22;55298;-36.624;-64.282;2022-08-01T10:56:02;4.50;99.90
59973;DHT22;55298;-36.624;-64.282;2022-08-01T10:58:36;4.50;99.90
59973;DHT22;55298;-36.624;-64.282;2022-08-01T11:01:27;4.50;99.90
59973;DHT22;55298;-36.624;-64.282;2022-08-01T11:04:08;4.40;99.90
59973;DHT22;55298;-36.624;-64.282;2022-08-01T11:06:50;4.50;99.90
59973;DHT22;55298;-36.624;-64.282;2022-08-01T11:09:30;4.40;99.90
59973;DHT22;55298;-36.624;-64.282;2022-08-01T11:12:04;4.40;99.90
59973;DHT22;55298;-36.624;-64.282;2022-08-01T11:17:42;4.50;99.90
59973;DHT22;55298;-36.624;-64.282;2022-08-01T11:20:21;4.50;99.90
59973;DHT22;55298;-36.624;-64.282;2022-08-01T11:23:16;3.70;99.90
59973;DHT22;55298;-36.624;-64.282;2022-08-01T11:26:06;4.40;99.90
59973;DHT22;55298;-36.624;-64.282;2022-08-01T11:28:36;4.40;99.90
59973;DHT22;55298;-36.624;-64.282;2022-08-01T11:31:24;4.50;99.90
59973;DHT22;55298;-36.624;-64.282;2022-08-01T11:33:55;4.70;99.90
59973;DHT22;55298;-36.624;-64.282;2022-08-01T11:36:23;4.70;99.90
59973;DHT22;55298;-36.624;-64.282;2022-08-01T11:39:12;4.70;99.90
59973;DHT22;55298;-36.624;-64.282;2022-08-01T11:41:42;4.80;99.90
59973;DHT22;55298;-36.624;-64.282;2022-08-01T11:44:15;4.80;99.90
59973;DHT22;55298;-36.624;-64.282;2022-08-01T11:47:04;4.70;99.90
59973;DHT22;55298;-36.624;-64.282;2022-08-01T11:49:46;4.70;99.90
59973;DHT22;55298;-36.624;-64.282;2022-08-01T11:52:30;4.70;99.90
59973;DHT22;55298;-36.624;-64.282;2022-08-01T11:55:08;4.70;99.90
59973;DHT22;55298;-36.624;-64.282;2022-08-01T11:57:38;4.80;99.90
59973;DHT22;55298;-36.624;-64.282;2022-08-01T12:00:15;4.80;99.90
59973;DHT22;55298;-36.624;-64.282;2022-08-01T12:02:46;4.80;99.90
59973;DHT22;55298;-36.624;-64.282;2022-08-01T12:05:23;4.80;99.90
59973;DHT22;55298;-36.624;-64.282;2022-08-01T12:07:54;5.10;99.90
59973;DHT22;55298;-36.624;-64.282;2022-08-01T12:10:26;5.00;99.90
59973;DHT22;55298;-36.624;-64.282;2022-08-01T12:13:06;5.00;99.90
59973;DHT22;55298;-36.624;-64.282;2022-08-01T12:15:37;5.20;99.90
59973;DHT22;55298;-36.624;-64.282;2022-08-01T12:18:07;5.00;99.90
59973;DHT22;55298;-36.624;-64.282;2022-08-01T12:20:38;5.00;99.90
59973;DHT22;55298;-36.624;-64.282;2022-08-01T12:23:10;5.10;99.90
59973;DHT22;55298;-36.624;-64.282;2022-08-01T12:25:40;5.00;99.90
59973;DHT22;55298;-36.624;-64.282;2022-08-01T12:28:12;4.90;99.90
59973;DHT22;55298;-36.624;-64.282;2022-08-01T12:30:41;5.10;99.90
59973;DHT22;55298;-36.624;-64.282;2022-08-01T12:33:11;4.90;99.90
59973;DHT22;55298;-36.624;-64.282;2022-08-01T12:35:44;4.90;99.90
59973;DHT22;55298;-36.624;-64.282;2022-08-01T12:38:20;5.10;99.90
59973;DHT22;55298;-36.624;-64.282;2022-08-01T12:40:51;5.10;99.90
59973;DHT22;55298;-36.624;-64.282;2022-08-01T12:43:22;6.50;99.90
59973;DHT22;55298;-36.624;-64.282;2022-08-01T12:45:53;5.20;99.90
59973;DHT22;55298;-36.624;-64.282;2022-08-01T12:48:23;5.20;99.90
59973;DHT22;55298;-36.624;-64.282;2022-08-01T12:50:56;5.20;99.90
59973;DHT22;55298;-36.624;-64.282;2022-08-01T12:53:28;5.40;99.90
59973;DHT22;55298;-36.624;-64.282;2022-08-01T12:55:56;5.40;99.90
59973;DHT22;55298;-36.624;-64.282;2022-08-01T12:58:29;5.50;99.90
59973;DHT22;55298;-36.624;-64.282;2022-08-01T13:01:07;5.40;99.90
59973;DHT22;55298;-36.624;-64.282;2022-08-01T13:03:37;5.50;99.90
59973;DHT22;55298;-36.624;-64.282;2022-08-01T13:06:20;5.50;99.90
59973;DHT22;55298;-36.624;-64.282;2022-08-01T13:08:50;5.70;99.90
59973;DHT22;55298;-36.624;-64.282;2022-08-01T13:11:20;5.80;99.90
59973;DHT22;55298;-36.624;-64.282;2022-08-01T13:13:50;5.70;99.90
59973;DHT22;55298;-36.624;-64.282;2022-08-01T13:16:21;5.80;99.90
59973;DHT22;55298;-36.624;-64.282;2022-08-01T13:18:54;5.90;99.90
59973;DHT22;55298;-36.624;-64.282;2022-08-01T13:21:26;5.90;99.90
59973;DHT22;55298;-36.624;-64.282;2022-08-01T13:24:04;6.00;99.90
59973;DHT22;55298;-36.624;-64.282;2022-08-01T13:26:53;6.00;99.90
59973;DHT22;55298;-36.624;-64.282;2022-08-01T13:29:32;5.60;99.90
59973;DHT22;55298;-36.624;-64.282;2022-08-01T13:32:17;6.10;99.90
59973;DHT22;55298;-36.624;-64.282;2022-08-01T13:34:48;6.20;99.90
59973;DHT22;55298;-36.624;-64.282;2022-08-01T13:37:16;6.10;99.90
59973;DHT22;55298;-36.624;-64.282;2022-08-01T13:39:45;6.10;99.90
59973;DHT22;55298;-36.624;-64.282;2022-08-01T13:42:15;6.20;99.90
59973;DHT22;55298;-36.624;-64.282;2022-08-01T13:44:45;6.30;99.90
59973;DHT22;55298;-36.624;-64.282;2022-08-01T13:47:13;6.30;99.90
59973;DHT22;55298;-36.624;-64.282;2022-08-01T13:49:43;6.20;99.90
59973;DHT22;55298;-36.624;-64.282;2022-08-01T13:52:11;6.30;99.90
59973;DHT22;55298;-36.624;-64.282;2022-08-01T13:54:40;6.30;99.90
59973;DHT22;55298;-36.624;-64.282;2022-08-01T13:57:10;6.30;99.90
59973;DHT22;55298;-36.624;-64.282;2022-08-01T13:59:38;6.30;99.90
59973;DHT22;55298;-36.624;-64.282;2022-08-01T14:02:06;6.30;99.90
59973;DHT22;55298;-36.624;-64.282;2022-08-01T14:04:35;6.40;99.90
59973;DHT22;55298;-36.624;-64.282;2022-08-01T14:07:04;6.30;99.90
59973;DHT22;55298;-36.624;-64.282;2022-08-01T14:09:33;6.40;99.90
59973;DHT22;55298;-36.624;-64.282;2022-08-01T14:12:03;6.60;99.90
59973;DHT22;55298;-36.624;-64.282;2022-08-01T14:14:32;6.60;99.90
59973;DHT22;55298;-36.624;-64.282;2022-08-01T14:17:02;6.60;99.90
59973;DHT22;55298;-36.624;-64.282;2022-08-01T14:19:33;7.00;99.90
59973;DHT22;55298;-36.624;-64.282;2022-08-01T14:22:02;7.10;99.90
59973;DHT22;55298;-36.624;-64.282;2022-08-01T14:24:32;7.30;99.90
59973;DHT22;55298;-36.624;-64.282;2022-08-01T14:27:00;7.40;99.90
59973;DHT22;55298;-36.624;-64.282;2022-08-01T14:29:29;7.40;99.90
59973;DHT22;55298;-36.624;-64.282;2022-08-01T14:31:57;7.70;99.90
59973;DHT22;55298;-36.624;-64.282;2022-08-01T14:34:28;7.80;99.90
59973;DHT22;55298;-36.624;-64.282;2022-08-01T14:36:56;8.10;99.90
59973;DHT22;55298;-36.624;-64.282;2022-08-01T14:39:25;8.10;99.90
59973;DHT22;55298;-36.624;-64.282;2022-08-01T14:41:54;8.30;99.90
59973;DHT22;55298;-36.624;-64.282;2022-08-01T14:44:23;8.30;99.90
59973;DHT22;55298;-36.624;-64.282;2022-08-01T14:46:52;8.30;99.90
59973;DHT22;55298;-36.624;-64.282;2022-08-01T14:49:22;8.50;99.90
59973;DHT22;55298;-36.624;-64.282;2022-08-01T14:51:50;8.60;99.90
59973;DHT22;55298;-36.624;-64.282;2022-08-01T14:54:18;8.60;99.90
59973;DHT22;55298;-36.624;-64.282;2022-08-01T14:56:47;8.80;99.90
59973;DHT22;55298;-36.624;-64.282;2022-08-01T14:59:19;8.70;99.90
59973;DHT22;55298;-36.624;-64.282;2022-08-01T15:01:50;8.60;99.90
59973;DHT22;55298;-36.624;-64.282;2022-08-01T15:04:23;8.70;99.90
59973;DHT22;55298;-36.624;-64.282;2022-08-01T15:06:54;8.70;99.90
59973;DHT22;55298;-36.624;-64.282;2022-08-01T15:09:24;9.00;99.90
59973;DHT22;55298;-36.624;-64.282;2022-08-01T15:11:56;9.20;99.90
59973;DHT22;55298;-36.624;-64.282;2022-08-01T15:14:27;9.30;99.90
59973;DHT22;55298;-36.624;-64.282;2022-08-01T15:17:08;9.80;99.90
59973;DHT22;55298;-36.624;-64.282;2022-08-01T15:19:42;9.70;99.90
59973;DHT22;55298;-36.624;-64.282;2022-08-01T15:22:13;9.70;99.90
59973;DHT22;55298;-36.624;-64.282;2022-08-01T15:24:45;9.60;99.90
59973;DHT22;55298;-36.624;-64.282;2022-08-01T15:27:17;9.70;99.90
59973;DHT22;55298;-36.624;-64.282;2022-08-01T15:29:47;9.50;99.90
59973;DHT22;55298;-36.624;-64.282;2022-08-01T15:32:19;9.80;99.90
59973;DHT22;55298;-36.624;-64.282;2022-08-01T15:34:50;9.80;99.90